createdAt,value
2022-12-09T00:05:53.833Z,99728.34
2022-12-09T00:15:57.250Z,99726.40
2022-12-09T00:26:00.620Z,99722.77
2022-12-09T00:36:09.303Z,99720.23
2022-12-09T00:46:13.918Z,99729.98
2022-12-09T00:56:17.367Z,99733.14
2022-12-09T01:06:23.789Z,99733.23
2022-12-09T01:16:29.942Z,99730.33
2022-12-09T01:26:33.442Z,99724.39
2022-12-09T01:36:36.882Z,99712.40
2022-12-09T01:46:41.369Z,99709.75
2022-12-09T01:56:44.698Z,99712.56
2022-12-09T02:06:48.290Z,99710.02
2022-12-09T02:17:14.610Z,99707.95
2022-12-09T02:27:28.785Z,99702.30
2022-12-09T02:37:56.554Z,99704.17
2022-12-09T02:48:05.355Z,99706.19
2022-12-09T02:58:26.061Z,99713.48
2022-12-09T03:09:13.896Z,99710.44
2022-12-09T03:19:20.048Z,99704.94
2022-12-09T03:29:26.243Z,99697.25
2022-12-09T03:39:34.570Z,99691.31
2022-12-09T03:49:39.658Z,99693.20
2022-12-09T03:59:47.198Z,99690.94
2022-12-09T04:09:50.698Z,99684.94
2022-12-09T04:19:54.384Z,99680.48
2022-12-09T04:29:57.546Z,99685.30
2022-12-09T04:40:00.708Z,99686.95
2022-12-09T04:50:06.007Z,99693.86
2022-12-09T05:00:11.302Z,99694.23
2022-12-09T05:10:15.165Z,99696.46
2022-12-09T05:20:18.855Z,99689.20
2022-12-09T05:30:22.344Z,99698.18
2022-12-09T05:40:25.884Z,99694.98
2022-12-09T05:50:29.520Z,99690.64
2022-12-09T06:00:34.139Z,99696.74
2022-12-09T06:10:42.215Z,99697.15
2022-12-09T06:20:46.090Z,99697.41
2022-12-09T06:30:50.089Z,99699.10
2022-12-09T06:40:53.740Z,99705.09
2022-12-09T06:50:56.908Z,99714.89
2022-12-09T07:01:23.028Z,99710.36
2022-12-09T07:11:27.382Z,99708.48
2022-12-09T07:21:31.024Z,99710.41
2022-12-09T07:31:35.564Z,99700.52
2022-12-09T07:41:40.014Z,99700.55
2022-12-09T07:51:44.040Z,99708.10
2022-12-09T08:01:47.321Z,99705.31
2022-12-09T08:11:50.947Z,99702.50
2022-12-09T08:21:54.939Z,99702.60
2022-12-09T08:31:59.184Z,99711.27
2022-12-09T08:42:03.038Z,99719.67
2022-12-09T08:52:06.556Z,99723.89
2022-12-09T09:02:10.093Z,99723.05
2022-12-09T09:12:14.062Z,99717.75
2022-12-09T09:22:17.647Z,99714.00
2022-12-09T09:32:21.358Z,99712.81
2022-12-09T09:42:34.476Z,99711.96
2022-12-09T09:52:42.691Z,99711.79
2022-12-09T10:03:00.720Z,99710.25
2022-12-09T10:13:18.813Z,99704.57
2022-12-09T10:23:24.415Z,99710.73
2022-12-09T10:33:30.632Z,99702.32
2022-12-09T10:43:41.037Z,99702.14
2022-12-09T10:53:53.206Z,99705.02
2022-12-09T11:03:56.939Z,99704.77
2022-12-09T11:14:00.407Z,99696.34
2022-12-09T11:24:04.920Z,99688.44
2022-12-09T11:34:18.917Z,99680.28
2022-12-09T11:44:33.239Z,99687.45
2022-12-09T11:54:45.499Z,99678.57
2022-12-09T12:04:51.321Z,99670.88
2022-12-09T12:14:59.118Z,99666.33
2022-12-09T12:25:17.151Z,99664.64
2022-12-09T12:35:45.757Z,99661.17
2022-12-09T12:46:17.811Z,99666.45
2022-12-09T12:56:30.668Z,99663.56
2022-12-09T13:06:57.215Z,99665.27
2022-12-09T13:17:05.782Z,99675.13
2022-12-09T13:27:39.636Z,99674.91
2022-12-09T13:37:42.733Z,99669.89
2022-12-09T13:47:47.583Z,99688.81
2022-12-09T13:57:57.150Z,99691.30
2022-12-09T14:08:07.360Z,99689.95
2022-12-09T14:18:30.054Z,99683.63
2022-12-09T14:28:33.212Z,99687.94
2022-12-09T14:39:16.075Z,99694.12
2022-12-09T14:49:29.771Z,99693.59
2022-12-09T14:59:35.801Z,99679.64
2022-12-09T15:09:48.650Z,99675.64
2022-12-09T15:20:00.216Z,99669.73
2022-12-09T15:30:21.200Z,99671.39
2022-12-09T15:40:29.420Z,99666.66
2022-12-09T15:50:35.273Z,99664.63
2022-12-09T16:00:45.379Z,99646.75
2022-12-09T16:10:51.150Z,99636.48
2022-12-09T16:21:16.590Z,99626.60
2022-12-09T16:31:19.822Z,99622.82
2022-12-09T16:42:01.972Z,99621.59
2022-12-09T16:52:05.614Z,99615.39
2022-12-09T17:02:21.186Z,99609.91
2022-12-09T17:12:24.717Z,99611.51
2022-12-09T17:22:27.967Z,99623.19
2022-12-09T17:32:31.176Z,99618.35
2022-12-09T17:42:34.347Z,99626.59
2022-12-09T17:52:37.825Z,99629.34
2022-12-09T18:02:41.321Z,99625.23
2022-12-09T18:12:44.893Z,99624.02
2022-12-09T18:22:48.149Z,99614.30
2022-12-09T18:32:51.336Z,99602.16
2022-12-09T18:42:54.460Z,99596.49
2022-12-09T18:52:57.587Z,99597.70
2022-12-09T19:03:00.855Z,99601.64
2022-12-09T19:13:05.073Z,99596.33
2022-12-09T19:23:09.136Z,99597.85
2022-12-09T19:33:12.359Z,99597.65
2022-12-09T19:43:15.497Z,99599.20
2022-12-09T19:53:18.708Z,99595.27
2022-12-09T20:03:21.944Z,99582.94
2022-12-09T20:13:30.162Z,99583.59
2022-12-09T20:23:36.407Z,99585.29
2022-12-09T20:33:40.436Z,99586.85
2022-12-09T20:43:45.951Z,99579.33
2022-12-09T20:53:50.007Z,99575.73
2022-12-09T21:03:54.369Z,99562.66
2022-12-09T21:13:58.511Z,99552.85
2022-12-09T21:24:03.133Z,99551.16
2022-12-09T21:34:07.461Z,99551.19
2022-12-09T21:44:14.128Z,99552.39
2022-12-09T21:54:17.507Z,99551.50
2022-12-09T22:04:20.606Z,99538.45
2022-12-09T22:14:23.722Z,99525.57
2022-12-09T22:24:26.889Z,99517.02
2022-12-09T22:34:30.021Z,99509.98
2022-12-09T22:44:33.229Z,99503.26
2022-12-09T22:54:36.438Z,99492.92
2022-12-09T23:04:39.659Z,99487.27
2022-12-09T23:14:42.792Z,99477.34
2022-12-09T23:24:48.089Z,99476.48
2022-12-09T23:34:51.953Z,99470.78
2022-12-09T23:44:55.380Z,99466.59
2022-12-09T23:55:03.904Z,99462.11
